sensor_id;sensor_type;location;lat;lon;timestamp;pressure;altitude;pressure_sealevel;temperature
38114;BMP180;23926;53.222;6.354;2022-12-16T00:01:09;100765.00;;;2.90
38114;BMP180;23926;53.222;6.354;2022-12-16T00:03:35;100762.00;;;2.90
38114;BMP180;23926;53.222;6.354;2022-12-16T00:06:00;100772.00;;;2.90
38114;BMP180;23926;53.222;6.354;2022-12-16T00:08:28;100775.00;;;3.00
38114;BMP180;23926;53.222;6.354;2022-12-16T00:10:58;100768.00;;;3.00
38114;BMP180;23926;53.222;6.354;2022-12-16T00:13:23;100770.00;;;2.90
38114;BMP180;23926;53.222;6.354;2022-12-16T00:15:48;100765.00;;;2.90
38114;BMP180;23926;53.222;6.354;2022-12-16T00:18:14;100769.00;;;2.80
38114;BMP180;23926;53.222;6.354;2022-12-16T00:20:50;100772.00;;;2.80
38114;BMP180;23926;53.222;6.354;2022-12-16T00:23:15;100767.00;;;2.70
38114;BMP180;23926;53.222;6.354;2022-12-16T00:25:41;100763.00;;;2.60
38114;BMP180;23926;53.222;6.354;2022-12-16T00:28:07;100767.00;;;2.60
38114;BMP180;23926;53.222;6.354;2022-12-16T00:30:32;100771.00;;;2.50
38114;BMP180;23926;53.222;6.354;2022-12-16T00:32:57;100770.00;;;2.60
38114;BMP180;23926;53.222;6.354;2022-12-16T00:35:23;100765.00;;;2.60
38114;BMP180;23926;53.222;6.354;2022-12-16T00:37:48;100772.00;;;2.60
38114;BMP180;23926;53.222;6.354;2022-12-16T00:40:13;100772.00;;;2.60
38114;BMP180;23926;53.222;6.354;2022-12-16T00:42:38;100774.00;;;2.60
38114;BMP180;23926;53.222;6.354;2022-12-16T00:45:04;100780.00;;;2.60
38114;BMP180;23926;53.222;6.354;2022-12-16T00:47:29;100777.00;;;2.60
38114;BMP180;23926;53.222;6.354;2022-12-16T00:49:55;100772.00;;;2.50
38114;BMP180;23926;53.222;6.354;2022-12-16T00:52:20;100789.00;;;2.60
38114;BMP180;23926;53.222;6.354;2022-12-16T00:54:45;100787.00;;;2.70
38114;BMP180;23926;53.222;6.354;2022-12-16T00:57:10;100774.00;;;2.70
38114;BMP180;23926;53.222;6.354;2022-12-16T00:59:36;100782.00;;;2.80
38114;BMP180;23926;53.222;6.354;2022-12-16T01:02:01;100782.00;;;2.90
38114;BMP180;23926;53.222;6.354;2022-12-16T01:04:27;100782.00;;;2.80
38114;BMP180;23926;53.222;6.354;2022-12-16T01:06:52;100795.00;;;2.90
38114;BMP180;23926;53.222;6.354;2022-12-16T01:09:18;100787.00;;;3.00
38114;BMP180;23926;53.222;6.354;2022-12-16T01:11:44;100795.00;;;3.10
38114;BMP180;23926;53.222;6.354;2022-12-16T01:14:09;100804.00;;;3.10
38114;BMP180;23926;53.222;6.354;2022-12-16T01:16:34;100800.00;;;3.20
38114;BMP180;23926;53.222;6.354;2022-12-16T01:18:59;100807.00;;;3.30
38114;BMP180;23926;53.222;6.354;2022-12-16T01:21:25;100804.00;;;3.40
38114;BMP180;23926;53.222;6.354;2022-12-16T01:23:51;100805.00;;;3.40
38114;BMP180;23926;53.222;6.354;2022-12-16T01:26:16;100813.00;;;3.50
38114;BMP180;23926;53.222;6.354;2022-12-16T01:28:42;100820.00;;;3.50
38114;BMP180;23926;53.222;6.354;2022-12-16T01:31:07;100830.00;;;3.50
38114;BMP180;23926;53.222;6.354;2022-12-16T01:33:32;100825.00;;;3.50
38114;BMP180;23926;53.222;6.354;2022-12-16T01:35:58;100837.00;;;3.60
38114;BMP180;23926;53.222;6.354;2022-12-16T01:38:24;100832.00;;;3.60
38114;BMP180;23926;53.222;6.354;2022-12-16T01:40:49;100839.00;;;3.60
38114;BMP180;23926;53.222;6.354;2022-12-16T01:43:15;100844.00;;;3.50
38114;BMP180;23926;53.222;6.354;2022-12-16T01:45:42;100844.00;;;3.50
38114;BMP180;23926;53.222;6.354;2022-12-16T01:48:53;100844.00;;;3.50
38114;BMP180;23926;53.222;6.354;2022-12-16T01:50:53;100845.00;;;3.60
38114;BMP180;23926;53.222;6.354;2022-12-16T01:53:20;100851.00;;;3.60
38114;BMP180;23926;53.222;6.354;2022-12-16T01:55:46;100848.00;;;3.60
38114;BMP180;23926;53.222;6.354;2022-12-16T01:58:13;100854.00;;;3.60
38114;BMP180;23926;53.222;6.354;2022-12-16T02:00:40;100859.00;;;3.70
38114;BMP180;23926;53.222;6.354;2022-12-16T02:03:06;100856.00;;;3.70
38114;BMP180;23926;53.222;6.354;2022-12-16T02:05:32;100862.00;;;3.70
38114;BMP180;23926;53.222;6.354;2022-12-16T02:10:45;100856.00;;;3.70
38114;BMP180;23926;53.222;6.354;2022-12-16T02:13:22;100852.00;;;3.60
38114;BMP180;23926;53.222;6.354;2022-12-16T02:18:37;100861.00;;;3.70
38114;BMP180;23926;53.222;6.354;2022-12-16T02:29:06;100854.00;;;3.80
38114;BMP180;23926;53.222;6.354;2022-12-16T02:44:09;100859.00;;;3.90
38114;BMP180;23926;53.222;6.354;2022-12-16T02:46:39;100852.00;;;3.80
38114;BMP180;23926;53.222;6.354;2022-12-16T02:49:06;100862.00;;;3.80
38114;BMP180;23926;53.222;6.354;2022-12-16T02:51:32;100858.00;;;3.80
38114;BMP180;23926;53.222;6.354;2022-12-16T02:53:59;100866.00;;;3.80
38114;BMP180;23926;53.222;6.354;2022-12-16T03:01:35;100865.00;;;3.80
38114;BMP180;23926;53.222;6.354;2022-12-16T03:05:05;100873.00;;;3.80
38114;BMP180;23926;53.222;6.354;2022-12-16T03:06:58;100875.00;;;3.80
38114;BMP180;23926;53.222;6.354;2022-12-16T03:09:27;100874.00;;;3.80
38114;BMP180;23926;53.222;6.354;2022-12-16T03:11:54;100876.00;;;3.80
38114;BMP180;23926;53.222;6.354;2022-12-16T03:14:21;100869.00;;;3.80
38114;BMP180;23926;53.222;6.354;2022-12-16T03:16:47;100872.00;;;3.70
38114;BMP180;23926;53.222;6.354;2022-12-16T03:19:13;100869.00;;;3.60
38114;BMP180;23926;53.222;6.354;2022-12-16T03:21:51;100870.00;;;3.50
38114;BMP180;23926;53.222;6.354;2022-12-16T03:24:18;100863.00;;;3.50
38114;BMP180;23926;53.222;6.354;2022-12-16T03:26:52;100873.00;;;3.40
38114;BMP180;23926;53.222;6.354;2022-12-16T03:37:02;100880.00;;;3.30
38114;BMP180;23926;53.222;6.354;2022-12-16T03:39:30;100874.00;;;3.30
38114;BMP180;23926;53.222;6.354;2022-12-16T03:41:57;100877.00;;;3.30
38114;BMP180;23926;53.222;6.354;2022-12-16T03:44:23;100889.00;;;3.40
38114;BMP180;23926;53.222;6.354;2022-12-16T03:46:49;100888.00;;;3.50
38114;BMP180;23926;53.222;6.354;2022-12-16T03:49:14;100899.00;;;3.40
38114;BMP180;23926;53.222;6.354;2022-12-16T03:51:40;100897.00;;;3.40
38114;BMP180;23926;53.222;6.354;2022-12-16T03:54:05;100902.00;;;3.40
38114;BMP180;23926;53.222;6.354;2022-12-16T03:56:30;100896.00;;;3.40
38114;BMP180;23926;53.222;6.354;2022-12-16T03:58:56;100902.00;;;3.50
38114;BMP180;23926;53.222;6.354;2022-12-16T04:01:21;100899.00;;;3.40
38114;BMP180;23926;53.222;6.354;2022-12-16T04:03:47;100913.00;;;3.40
38114;BMP180;23926;53.222;6.354;2022-12-16T04:06:12;100912.00;;;3.60
38114;BMP180;23926;53.222;6.354;2022-12-16T04:08:43;100913.00;;;3.70
38114;BMP180;23926;53.222;6.354;2022-12-16T04:11:09;100906.00;;;3.70
38114;BMP180;23926;53.222;6.354;2022-12-16T04:13:53;100914.00;;;3.60
38114;BMP180;23926;53.222;6.354;2022-12-16T04:16:37;100911.00;;;3.70
38114;BMP180;23926;53.222;6.354;2022-12-16T04:19:24;100922.00;;;3.60
38114;BMP180;23926;53.222;6.354;2022-12-16T04:22:13;100920.00;;;3.70
38114;BMP180;23926;53.222;6.354;2022-12-16T04:25:00;100932.00;;;3.70
38114;BMP180;23926;53.222;6.354;2022-12-16T04:27:26;100934.00;;;3.80
38114;BMP180;23926;53.222;6.354;2022-12-16T04:29:53;100919.00;;;3.80
38114;BMP180;23926;53.222;6.354;2022-12-16T04:32:37;100926.00;;;3.80
38114;BMP180;23926;53.222;6.354;2022-12-16T04:35:21;100931.00;;;3.70
38114;BMP180;23926;53.222;6.354;2022-12-16T04:38:05;100927.00;;;3.80
38114;BMP180;23926;53.222;6.354;2022-12-16T04:40:49;100940.00;;;3.70
38114;BMP180;23926;53.222;6.354;2022-12-16T04:43:32;100933.00;;;3.70
38114;BMP180;23926;53.222;6.354;2022-12-16T04:46:16;100943.00;;;3.70
38114;BMP180;23926;53.222;6.354;2022-12-16T04:49:00;100942.00;;;3.70
38114;BMP180;23926;53.222;6.354;2022-12-16T04:51:44;100955.00;;;3.70
38114;BMP180;23926;53.222;6.354;2022-12-16T04:54:28;100955.00;;;3.60
38114;BMP180;23926;53.222;6.354;2022-12-16T04:57:12;100953.00;;;3.60
38114;BMP180;23926;53.222;6.354;2022-12-16T04:59:56;100958.00;;;3.60
38114;BMP180;23926;53.222;6.354;2022-12-16T05:02:40;100962.00;;;3.70
38114;BMP180;23926;53.222;6.354;2022-12-16T05:05:24;100959.00;;;3.60
38114;BMP180;23926;53.222;6.354;2022-12-16T05:08:08;100965.00;;;3.60
38114;BMP180;23926;53.222;6.354;2022-12-16T05:10:52;100960.00;;;3.70
38114;BMP180;23926;53.222;6.354;2022-12-16T05:13:36;100965.00;;;3.70
38114;BMP180;23926;53.222;6.354;2022-12-16T05:16:20;100968.00;;;3.60
38114;BMP180;23926;53.222;6.354;2022-12-16T05:19:04;100965.00;;;3.60
38114;BMP180;23926;53.222;6.354;2022-12-16T05:21:48;100977.00;;;3.60
38114;BMP180;23926;53.222;6.354;2022-12-16T05:24:31;100987.00;;;3.60
38114;BMP180;23926;53.222;6.354;2022-12-16T05:27:15;100983.00;;;3.60
38114;BMP180;23926;53.222;6.354;2022-12-16T05:29:59;100979.00;;;3.70
38114;BMP180;23926;53.222;6.354;2022-12-16T05:32:47;100985.00;;;3.60
38114;BMP180;23926;53.222;6.354;2022-12-16T05:35:30;100990.00;;;3.60
38114;BMP180;23926;53.222;6.354;2022-12-16T05:38:34;100993.00;;;3.60
38114;BMP180;23926;53.222;6.354;2022-12-16T05:41:18;100997.00;;;3.60
38114;BMP180;23926;53.222;6.354;2022-12-16T05:44:02;101000.00;;;3.60
38114;BMP180;23926;53.222;6.354;2022-12-16T05:46:45;100996.00;;;3.60
38114;BMP180;23926;53.222;6.354;2022-12-16T05:49:29;101004.00;;;3.60
38114;BMP180;23926;53.222;6.354;2022-12-16T05:52:13;101005.00;;;3.60
38114;BMP180;23926;53.222;6.354;2022-12-16T05:54:57;101016.00;;;3.60
38114;BMP180;23926;53.222;6.354;2022-12-16T05:57:41;101012.00;;;3.60
38114;BMP180;23926;53.222;6.354;2022-12-16T06:00:25;101006.00;;;3.60
38114;BMP180;23926;53.222;6.354;2022-12-16T06:03:09;101016.00;;;3.70
38114;BMP180;23926;53.222;6.354;2022-12-16T06:05:53;101010.00;;;3.60
38114;BMP180;23926;53.222;6.354;2022-12-16T06:08:37;101014.00;;;3.60
38114;BMP180;23926;53.222;6.354;2022-12-16T06:11:21;101012.00;;;3.70
38114;BMP180;23926;53.222;6.354;2022-12-16T06:14:05;101013.00;;;3.60
38114;BMP180;23926;53.222;6.354;2022-12-16T06:16:49;101016.00;;;3.60
38114;BMP180;23926;53.222;6.354;2022-12-16T06:19:33;101027.00;;;3.70
38114;BMP180;23926;53.222;6.354;2022-12-16T06:22:17;101012.00;;;3.70
38114;BMP180;23926;53.222;6.354;2022-12-16T06:25:01;101032.00;;;3.70
38114;BMP180;23926;53.222;6.354;2022-12-16T06:27:51;101033.00;;;3.60
38114;BMP180;23926;53.222;6.354;2022-12-16T06:30:35;101038.00;;;3.60
38114;BMP180;23926;53.222;6.354;2022-12-16T06:33:19;101047.00;;;3.60
38114;BMP180;23926;53.222;6.354;2022-12-16T06:36:03;101051.00;;;3.60
38114;BMP180;23926;53.222;6.354;2022-12-16T06:38:47;101064.00;;;3.60
38114;BMP180;23926;53.222;6.354;2022-12-16T06:41:31;101066.00;;;3.60
38114;BMP180;23926;53.222;6.354;2022-12-16T06:44:15;101065.00;;;3.60
38114;BMP180;23926;53.222;6.354;2022-12-16T06:46:59;101075.00;;;3.70
38114;BMP180;23926;53.222;6.354;2022-12-16T06:49:43;101074.00;;;3.60
38114;BMP180;23926;53.222;6.354;2022-12-16T06:52:27;101088.00;;;3.60
38114;BMP180;23926;53.222;6.354;2022-12-16T06:55:11;101082.00;;;3.70
38114;BMP180;23926;53.222;6.354;2022-12-16T06:57:56;101088.00;;;3.60
38114;BMP180;23926;53.222;6.354;2022-12-16T07:00:39;101104.00;;;3.50
38114;BMP180;23926;53.222;6.354;2022-12-16T07:03:23;101090.00;;;3.50
38114;BMP180;23926;53.222;6.354;2022-12-16T07:06:07;101113.00;;;3.50
38114;BMP180;23926;53.222;6.354;2022-12-16T07:08:51;101115.00;;;3.50
38114;BMP180;23926;53.222;6.354;2022-12-16T07:11:35;101114.00;;;3.50
38114;BMP180;23926;53.222;6.354;2022-12-16T07:14:20;101121.00;;;3.50
38114;BMP180;23926;53.222;6.354;2022-12-16T07:17:03;101132.00;;;3.60
38114;BMP180;23926;53.222;6.354;2022-12-16T07:19:47;101133.00;;;3.60
38114;BMP180;23926;53.222;6.354;2022-12-16T07:22:31;101136.00;;;3.50
38114;BMP180;23926;53.222;6.354;2022-12-16T07:25:15;101142.00;;;3.60
38114;BMP180;23926;53.222;6.354;2022-12-16T07:27:59;101152.00;;;3.60
38114;BMP180;23926;53.222;6.354;2022-12-16T07:30:43;101158.00;;;3.50
38114;BMP180;23926;53.222;6.354;2022-12-16T07:33:27;101162.00;;;3.50
38114;BMP180;23926;53.222;6.354;2022-12-16T07:36:11;101155.00;;;3.50
38114;BMP180;23926;53.222;6.354;2022-12-16T07:38:55;101164.00;;;3.60
38114;BMP180;23926;53.222;6.354;2022-12-16T07:41:39;101173.00;;;3.50
38114;BMP180;23926;53.222;6.354;2022-12-16T07:44:23;101165.00;;;3.50
38114;BMP180;23926;53.222;6.354;2022-12-16T07:47:07;101172.00;;;3.50
38114;BMP180;23926;53.222;6.354;2022-12-16T07:49:51;101180.00;;;3.50
38114;BMP180;23926;53.222;6.354;2022-12-16T07:52:35;101183.00;;;3.60
38114;BMP180;23926;53.222;6.354;2022-12-16T07:55:19;101194.00;;;3.60
38114;BMP180;23926;53.222;6.354;2022-12-16T07:58:03;101189.00;;;3.70
38114;BMP180;23926;53.222;6.354;2022-12-16T08:00:47;101198.00;;;3.70
38114;BMP180;23926;53.222;6.354;2022-12-16T08:03:31;101200.00;;;3.60
38114;BMP180;23926;53.222;6.354;2022-12-16T08:06:15;101207.00;;;3.70
38114;BMP180;23926;53.222;6.354;2022-12-16T08:08:59;101221.00;;;3.60
38114;BMP180;23926;53.222;6.354;2022-12-16T08:11:43;101217.00;;;3.60
38114;BMP180;23926;53.222;6.354;2022-12-16T08:14:27;101227.00;;;3.60
38114;BMP180;23926;53.222;6.354;2022-12-16T08:17:13;101225.00;;;3.50
38114;BMP180;23926;53.222;6.354;2022-12-16T08:19:57;101223.00;;;3.50
38114;BMP180;23926;53.222;6.354;2022-12-16T08:22:41;101238.00;;;3.50
38114;BMP180;23926;53.222;6.354;2022-12-16T08:25:25;101239.00;;;3.50
38114;BMP180;23926;53.222;6.354;2022-12-16T08:28:09;101242.00;;;3.50
38114;BMP180;23926;53.222;6.354;2022-12-16T08:31:03;101234.00;;;3.50
38114;BMP180;23926;53.222;6.354;2022-12-16T08:33:47;101245.00;;;3.40
38114;BMP180;23926;53.222;6.354;2022-12-16T08:36:31;101246.00;;;3.40
38114;BMP180;23926;53.222;6.354;2022-12-16T08:39:15;101255.00;;;3.50
38114;BMP180;23926;53.222;6.354;2022-12-16T08:41:59;101265.00;;;3.50
38114;BMP180;23926;53.222;6.354;2022-12-16T08:44:43;101269.00;;;3.60
38114;BMP180;23926;53.222;6.354;2022-12-16T08:47:27;101262.00;;;3.60
38114;BMP180;23926;53.222;6.354;2022-12-16T08:50:11;101270.00;;;3.50
38114;BMP180;23926;53.222;6.354;2022-12-16T08:52:55;101269.00;;;3.60
38114;BMP180;23926;53.222;6.354;2022-12-16T08:55:39;101284.00;;;3.60
38114;BMP180;23926;53.222;6.354;2022-12-16T08:58:23;101269.00;;;3.60
38114;BMP180;23926;53.222;6.354;2022-12-16T09:01:07;101292.00;;;3.70
38114;BMP180;23926;53.222;6.354;2022-12-16T09:03:51;101277.00;;;3.70
38114;BMP180;23926;53.222;6.354;2022-12-16T09:06:35;101282.00;;;3.80
38114;BMP180;23926;53.222;6.354;2022-12-16T09:09:19;101288.00;;;3.80
38114;BMP180;23926;53.222;6.354;2022-12-16T09:12:03;101293.00;;;3.80
38114;BMP180;23926;53.222;6.354;2022-12-16T09:14:47;101298.00;;;3.80
38114;BMP180;23926;53.222;6.354;2022-12-16T09:17:31;101299.00;;;3.90
38114;BMP180;23926;53.222;6.354;2022-12-16T09:20:15;101295.00;;;3.80
38114;BMP180;23926;53.222;6.354;2022-12-16T09:23:02;101300.00;;;3.90
38114;BMP180;23926;53.222;6.354;2022-12-16T09:25:47;101308.00;;;3.80
38114;BMP180;23926;53.222;6.354;2022-12-16T09:28:30;101317.00;;;3.90
38114;BMP180;23926;53.222;6.354;2022-12-16T09:31:28;101323.00;;;4.00
38114;BMP180;23926;53.222;6.354;2022-12-16T09:34:12;101318.00;;;4.00
38114;BMP180;23926;53.222;6.354;2022-12-16T09:36:56;101331.00;;;4.00
38114;BMP180;23926;53.222;6.354;2022-12-16T09:39:40;101327.00;;;4.00
38114;BMP180;23926;53.222;6.354;2022-12-16T09:42:27;101336.00;;;4.00
38114;BMP180;23926;53.222;6.354;2022-12-16T09:45:25;101346.00;;;4.00
38114;BMP180;23926;53.222;6.354;2022-12-16T09:51:15;101349.00;;;4.00
38114;BMP180;23926;53.222;6.354;2022-12-16T09:53:59;101350.00;;;4.00
38114;BMP180;23926;53.222;6.354;2022-12-16T09:56:44;101352.00;;;4.00
38114;BMP180;23926;53.222;6.354;2022-12-16T09:59:29;101360.00;;;4.00
38114;BMP180;23926;53.222;6.354;2022-12-16T10:02:15;101376.00;;;4.10
38114;BMP180;23926;53.222;6.354;2022-12-16T10:05:00;101370.00;;;4.10
38114;BMP180;23926;53.222;6.354;2022-12-16T10:07:45;101373.00;;;4.10
38114;BMP180;23926;53.222;6.354;2022-12-16T10:31:15;101391.00;;;4.30
38114;BMP180;23926;53.222;6.354;2022-12-16T10:33:59;101380.00;;;4.30
38114;BMP180;23926;53.222;6.354;2022-12-16T10:36:53;101383.00;;;4.30
38114;BMP180;23926;53.222;6.354;2022-12-16T10:39:39;101388.00;;;4.30
38114;BMP180;23926;53.222;6.354;2022-12-16T10:42:32;101382.00;;;4.30
38114;BMP180;23926;53.222;6.354;2022-12-16T10:48:09;101394.00;;;4.40
38114;BMP180;23926;53.222;6.354;2022-12-16T10:50:53;101388.00;;;4.30
38114;BMP180;23926;53.222;6.354;2022-12-16T10:53:40;101384.00;;;4.30
38114;BMP180;23926;53.222;6.354;2022-12-16T10:56:42;101385.00;;;4.30
38114;BMP180;23926;53.222;6.354;2022-12-16T10:59:34;101383.00;;;4.30
38114;BMP180;23926;53.222;6.354;2022-12-16T11:02:19;101390.00;;;4.30
38114;BMP180;23926;53.222;6.354;2022-12-16T11:08:17;101384.00;;;4.30
38114;BMP180;23926;53.222;6.354;2022-12-16T11:11:11;101389.00;;;4.20
38114;BMP180;23926;53.222;6.354;2022-12-16T11:14:07;101386.00;;;4.20
38114;BMP180;23926;53.222;6.354;2022-12-16T11:17:09;101383.00;;;4.20
38114;BMP180;23926;53.222;6.354;2022-12-16T11:20:36;101385.00;;;4.20
38114;BMP180;23926;53.222;6.354;2022-12-16T11:29:15;101401.00;;;4.10
38114;BMP180;23926;53.222;6.354;2022-12-16T11:31:59;101403.00;;;4.10
38114;BMP180;23926;53.222;6.354;2022-12-16T11:34:44;101408.00;;;4.20
38114;BMP180;23926;53.222;6.354;2022-12-16T11:37:29;101406.00;;;4.10
38114;BMP180;23926;53.222;6.354;2022-12-16T11:40:14;101409.00;;;4.10
38114;BMP180;23926;53.222;6.354;2022-12-16T11:43:00;101408.00;;;4.10
38114;BMP180;23926;53.222;6.354;2022-12-16T11:45:45;101406.00;;;4.10
38114;BMP180;23926;53.222;6.354;2022-12-16T11:51:16;101413.00;;;4.10
38114;BMP180;23926;53.222;6.354;2022-12-16T11:54:04;101400.00;;;4.00
38114;BMP180;23926;53.222;6.354;2022-12-16T11:56:50;101403.00;;;4.00
38114;BMP180;23926;53.222;6.354;2022-12-16T12:02:35;101409.00;;;4.00
38114;BMP180;23926;53.222;6.354;2022-12-16T12:05:24;101417.00;;;4.00
38114;BMP180;23926;53.222;6.354;2022-12-16T12:08:22;101414.00;;;4.00
38114;BMP180;23926;53.222;6.354;2022-12-16T12:11:10;101409.00;;;4.00
38114;BMP180;23926;53.222;6.354;2022-12-16T12:13:59;101418.00;;;4.00
38114;BMP180;23926;53.222;6.354;2022-12-16T12:17:00;101425.00;;;4.10
38114;BMP180;23926;53.222;6.354;2022-12-16T12:22:55;101430.00;;;4.20
38114;BMP180;23926;53.222;6.354;2022-12-16T12:25:49;101428.00;;;4.30
38114;BMP180;23926;53.222;6.354;2022-12-16T12:34:21;101447.00;;;4.40
38114;BMP180;23926;53.222;6.354;2022-12-16T12:39:59;101439.00;;;4.40
38114;BMP180;23926;53.222;6.354;2022-12-16T12:42:46;101449.00;;;4.40
38114;BMP180;23926;53.222;6.354;2022-12-16T12:48:21;101450.00;;;4.40
38114;BMP180;23926;53.222;6.354;2022-12-16T12:51:09;101443.00;;;4.40
38114;BMP180;23926;53.222;6.354;2022-12-16T12:56:50;101440.00;;;4.40
38114;BMP180;23926;53.222;6.354;2022-12-16T13:02:58;101449.00;;;4.50
38114;BMP180;23926;53.222;6.354;2022-12-16T13:05:38;101455.00;;;4.50
38114;BMP180;23926;53.222;6.354;2022-12-16T13:08:34;101463.00;;;4.50
38114;BMP180;23926;53.222;6.354;2022-12-16T13:11:23;101463.00;;;4.60
38114;BMP180;23926;53.222;6.354;2022-12-16T13:17:10;101463.00;;;4.60
38114;BMP180;23926;53.222;6.354;2022-12-16T13:19:54;101469.00;;;4.50
38114;BMP180;23926;53.222;6.354;2022-12-16T13:22:39;101473.00;;;4.50
38114;BMP180;23926;53.222;6.354;2022-12-16T13:25:30;101473.00;;;4.50
38114;BMP180;23926;53.222;6.354;2022-12-16T13:28:23;101471.00;;;4.50
38114;BMP180;23926;53.222;6.354;2022-12-16T13:31:07;101469.00;;;4.50
38114;BMP180;23926;53.222;6.354;2022-12-16T13:33:52;101471.00;;;4.50
38114;BMP180;23926;53.222;6.354;2022-12-16T13:36:36;101467.00;;;4.50
38114;BMP180;23926;53.222;6.354;2022-12-16T13:39:21;101478.00;;;4.50
38114;BMP180;23926;53.222;6.354;2022-12-16T13:42:29;101474.00;;;4.50
38114;BMP180;23926;53.222;6.354;2022-12-16T13:45:30;101474.00;;;4.50
38114;BMP180;23926;53.222;6.354;2022-12-16T13:48:25;101484.00;;;4.50
38114;BMP180;23926;53.222;6.354;2022-12-16T13:51:15;101493.00;;;4.50
38114;BMP180;23926;53.222;6.354;2022-12-16T13:54:12;101496.00;;;4.50
38114;BMP180;23926;53.222;6.354;2022-12-16T13:56:57;101495.00;;;4.40
38114;BMP180;23926;53.222;6.354;2022-12-16T13:59:43;101498.00;;;4.30
38114;BMP180;23926;53.222;6.354;2022-12-16T14:02:40;101497.00;;;4.30
38114;BMP180;23926;53.222;6.354;2022-12-16T14:05:26;101503.00;;;4.20
38114;BMP180;23926;53.222;6.354;2022-12-16T14:08:19;101511.00;;;4.30
38114;BMP180;23926;53.222;6.354;2022-12-16T14:11:04;101519.00;;;4.20
38114;BMP180;23926;53.222;6.354;2022-12-16T14:16:45;101520.00;;;4.30
38114;BMP180;23926;53.222;6.354;2022-12-16T14:25:32;101524.00;;;4.20
38114;BMP180;23926;53.222;6.354;2022-12-16T14:28:27;101522.00;;;4.20
38114;BMP180;23926;53.222;6.354;2022-12-16T14:34:00;101534.00;;;4.10
38114;BMP180;23926;53.222;6.354;2022-12-16T14:36:44;101539.00;;;4.00
38114;BMP180;23926;53.222;6.354;2022-12-16T14:39:29;101551.00;;;3.90
38114;BMP180;23926;53.222;6.354;2022-12-16T14:42:26;101559.00;;;3.90
38114;BMP180;23926;53.222;6.354;2022-12-16T14:45:21;101560.00;;;3.70
38114;BMP180;23926;53.222;6.354;2022-12-16T14:48:27;101561.00;;;3.60
38114;BMP180;23926;53.222;6.354;2022-12-16T14:54:15;101557.00;;;3.40
38114;BMP180;23926;53.222;6.354;2022-12-16T14:56:59;101561.00;;;3.30
38114;BMP180;23926;53.222;6.354;2022-12-16T14:59:43;101561.00;;;3.10
38114;BMP180;23926;53.222;6.354;2022-12-16T15:02:28;101573.00;;;3.00
38114;BMP180;23926;53.222;6.354;2022-12-16T15:05:16;101564.00;;;2.90
38114;BMP180;23926;53.222;6.354;2022-12-16T15:08:00;101563.00;;;2.80
38114;BMP180;23926;53.222;6.354;2022-12-16T15:10:45;101563.00;;;2.80
38114;BMP180;23926;53.222;6.354;2022-12-16T15:13:29;101568.00;;;2.80
38114;BMP180;23926;53.222;6.354;2022-12-16T15:16:14;101567.00;;;2.70
38114;BMP180;23926;53.222;6.354;2022-12-16T15:19:11;101572.00;;;2.70
38114;BMP180;23926;53.222;6.354;2022-12-16T15:21:59;101574.00;;;2.60
38114;BMP180;23926;53.222;6.354;2022-12-16T15:24:43;101575.00;;;2.50
38114;BMP180;23926;53.222;6.354;2022-12-16T15:27:32;101581.00;;;2.50
38114;BMP180;23926;53.222;6.354;2022-12-16T15:33:21;101598.00;;;2.20
38114;BMP180;23926;53.222;6.354;2022-12-16T15:36:05;101603.00;;;2.20
38114;BMP180;23926;53.222;6.354;2022-12-16T15:38:49;101607.00;;;2.20
38114;BMP180;23926;53.222;6.354;2022-12-16T15:41:34;101612.00;;;2.10
38114;BMP180;23926;53.222;6.354;2022-12-16T15:44:19;101615.00;;;2.00
38114;BMP180;23926;53.222;6.354;2022-12-16T15:47:04;101616.00;;;2.10
38114;BMP180;23926;53.222;6.354;2022-12-16T15:49:49;101619.00;;;2.10
38114;BMP180;23926;53.222;6.354;2022-12-16T16:01:00;101630.00;;;2.50
38114;BMP180;23926;53.222;6.354;2022-12-16T16:03:48;101626.00;;;2.60
38114;BMP180;23926;53.222;6.354;2022-12-16T16:06:33;101622.00;;;2.60
38114;BMP180;23926;53.222;6.354;2022-12-16T16:09:27;101616.00;;;2.60
38114;BMP180;23926;53.222;6.354;2022-12-16T16:12:12;101624.00;;;2.60
38114;BMP180;23926;53.222;6.354;2022-12-16T16:14:56;101635.00;;;2.60
38114;BMP180;23926;53.222;6.354;2022-12-16T16:17:41;101636.00;;;2.60
38114;BMP180;23926;53.222;6.354;2022-12-16T16:20:25;101632.00;;;2.60
38114;BMP180;23926;53.222;6.354;2022-12-16T16:23:09;101639.00;;;2.60
38114;BMP180;23926;53.222;6.354;2022-12-16T16:25:53;101655.00;;;2.70
38114;BMP180;23926;53.222;6.354;2022-12-16T16:28:37;101645.00;;;2.80
38114;BMP180;23926;53.222;6.354;2022-12-16T16:31:21;101647.00;;;2.80
38114;BMP180;23926;53.222;6.354;2022-12-16T16:34:05;101653.00;;;2.90
38114;BMP180;23926;53.222;6.354;2022-12-16T16:36:51;101656.00;;;3.00
38114;BMP180;23926;53.222;6.354;2022-12-16T16:39:35;101666.00;;;3.10
38114;BMP180;23926;53.222;6.354;2022-12-16T16:42:19;101668.00;;;3.10
38114;BMP180;23926;53.222;6.354;2022-12-16T16:45:06;101670.00;;;3.20
38114;BMP180;23926;53.222;6.354;2022-12-16T16:47:51;101675.00;;;3.20
38114;BMP180;23926;53.222;6.354;2022-12-16T16:50:36;101669.00;;;3.30
38114;BMP180;23926;53.222;6.354;2022-12-16T16:53:19;101678.00;;;3.30
38114;BMP180;23926;53.222;6.354;2022-12-16T16:56:04;101674.00;;;3.30
38114;BMP180;23926;53.222;6.354;2022-12-16T16:58:47;101687.00;;;3.40
38114;BMP180;23926;53.222;6.354;2022-12-16T17:01:32;101687.00;;;3.40
38114;BMP180;23926;53.222;6.354;2022-12-16T17:04:16;101690.00;;;3.40
38114;BMP180;23926;53.222;6.354;2022-12-16T17:07:00;101698.00;;;3.40
38114;BMP180;23926;53.222;6.354;2022-12-16T17:09:44;101700.00;;;3.50
38114;BMP180;23926;53.222;6.354;2022-12-16T17:12:28;101700.00;;;3.50
38114;BMP180;23926;53.222;6.354;2022-12-16T17:15:13;101705.00;;;3.60
38114;BMP180;23926;53.222;6.354;2022-12-16T17:17:57;101713.00;;;3.70
38114;BMP180;23926;53.222;6.354;2022-12-16T17:20:41;101718.00;;;3.70
38114;BMP180;23926;53.222;6.354;2022-12-16T17:23:25;101716.00;;;3.60
38114;BMP180;23926;53.222;6.354;2022-12-16T17:26:09;101722.00;;;3.60
38114;BMP180;23926;53.222;6.354;2022-12-16T17:28:53;101721.00;;;3.50
38114;BMP180;23926;53.222;6.354;2022-12-16T17:31:37;101722.00;;;3.50
38114;BMP180;23926;53.222;6.354;2022-12-16T17:34:21;101730.00;;;3.30
38114;BMP180;23926;53.222;6.354;2022-12-16T17:37:05;101733.00;;;3.30
38114;BMP180;23926;53.222;6.354;2022-12-16T17:39:49;101726.00;;;3.40